sensor_id;sensor_type;location;lat;lon;timestamp;temperature;humidity
40638;DHT22;26336;44.696;10.622;2022-09-09T00:03:08;22.80;99.90
40638;DHT22;26336;44.696;10.622;2022-09-09T00:09:39;22.80;99.90
40638;DHT22;26336;44.696;10.622;2022-09-09T00:16:23;22.80;99.90
40638;DHT22;26336;44.696;10.622;2022-09-09T00:19:37;22.70;99.90
40638;DHT22;26336;44.696;10.622;2022-09-09T00:22:50;22.70;99.90
40638;DHT22;26336;44.696;10.622;2022-09-09T00:32:18;22.60;99.90
40638;DHT22;26336;44.696;10.622;2022-09-09T00:35:26;22.50;99.90
40638;DHT22;26336;44.696;10.622;2022-09-09T00:38:35;22.40;99.90
40638;DHT22;26336;44.696;10.622;2022-09-09T00:41:48;22.30;99.90
40638;DHT22;26336;44.696;10.622;2022-09-09T00:48:18;22.20;99.90
40638;DHT22;26336;44.696;10.622;2022-09-09T00:52:20;22.00;99.90
40638;DHT22;26336;44.696;10.622;2022-09-09T00:58:19;22.00;99.90
40638;DHT22;26336;44.696;10.622;2022-09-09T01:01:23;22.10;99.90
40638;DHT22;26336;44.696;10.622;2022-09-09T01:04:32;22.20;99.90
40638;DHT22;26336;44.696;10.622;2022-09-09T01:07:37;22.20;99.90
40638;DHT22;26336;44.696;10.622;2022-09-09T01:10:50;22.20;99.90
40638;DHT22;26336;44.696;10.622;2022-09-09T01:14:05;22.20;99.90
40638;DHT22;26336;44.696;10.622;2022-09-09T01:27:40;21.90;99.90
40638;DHT22;26336;44.696;10.622;2022-09-09T01:30:45;21.80;99.90
40638;DHT22;26336;44.696;10.622;2022-09-09T01:33:53;21.80;99.90
40638;DHT22;26336;44.696;10.622;2022-09-09T01:37:10;21.70;99.90
40638;DHT22;26336;44.696;10.622;2022-09-09T01:40:16;21.80;99.90
40638;DHT22;26336;44.696;10.622;2022-09-09T01:43:21;21.70;99.90
40638;DHT22;26336;44.696;10.622;2022-09-09T01:46:25;21.80;99.90
40638;DHT22;26336;44.696;10.622;2022-09-09T01:49:31;21.60;99.90
40638;DHT22;26336;44.696;10.622;2022-09-09T01:52:38;21.50;99.90
40638;DHT22;26336;44.696;10.622;2022-09-09T02:05:47;21.50;99.90
40638;DHT22;26336;44.696;10.622;2022-09-09T02:09:02;21.30;99.90
40638;DHT22;26336;44.696;10.622;2022-09-09T02:12:12;21.40;99.90
40638;DHT22;26336;44.696;10.622;2022-09-09T02:15:42;21.40;99.90
40638;DHT22;26336;44.696;10.622;2022-09-09T02:22:05;21.10;99.90
40638;DHT22;26336;44.696;10.622;2022-09-09T02:25:12;21.10;99.90
40638;DHT22;26336;44.696;10.622;2022-09-09T02:28:20;21.20;99.90
40638;DHT22;26336;44.696;10.622;2022-09-09T02:31:25;21.10;99.90
40638;DHT22;26336;44.696;10.622;2022-09-09T02:34:40;21.20;99.90
40638;DHT22;26336;44.696;10.622;2022-09-09T02:37:46;21.20;99.90
40638;DHT22;26336;44.696;10.622;2022-09-09T02:40:52;21.30;99.90
40638;DHT22;26336;44.696;10.622;2022-09-09T02:43:56;21.30;99.90
40638;DHT22;26336;44.696;10.622;2022-09-09T02:50:39;21.20;99.90
40638;DHT22;26336;44.696;10.622;2022-09-09T02:54:09;21.10;99.90
40638;DHT22;26336;44.696;10.622;2022-09-09T02:57:24;21.10;99.90
40638;DHT22;26336;44.696;10.622;2022-09-09T03:00:29;21.00;99.90
40638;DHT22;26336;44.696;10.622;2022-09-09T03:03:38;21.10;99.90
40638;DHT22;26336;44.696;10.622;2022-09-09T03:06:49;21.10;99.90
40638;DHT22;26336;44.696;10.622;2022-09-09T03:09:56;21.10;99.90
40638;DHT22;26336;44.696;10.622;2022-09-09T03:13:04;21.20;99.90
40638;DHT22;26336;44.696;10.622;2022-09-09T03:16:11;20.90;99.90
40638;DHT22;26336;44.696;10.622;2022-09-09T03:19:21;20.80;99.90
40638;DHT22;26336;44.696;10.622;2022-09-09T03:22:27;20.80;99.90
40638;DHT22;26336;44.696;10.622;2022-09-09T03:25:33;20.90;99.90
40638;DHT22;26336;44.696;10.622;2022-09-09T03:28:37;20.90;99.90
40638;DHT22;26336;44.696;10.622;2022-09-09T03:31:42;20.90;99.90
40638;DHT22;26336;44.696;10.622;2022-09-09T03:34:47;20.90;99.90
40638;DHT22;26336;44.696;10.622;2022-09-09T03:37:51;20.90;99.90
40638;DHT22;26336;44.696;10.622;2022-09-09T03:40:57;20.80;99.90
40638;DHT22;26336;44.696;10.622;2022-09-09T03:44:02;20.80;99.90
40638;DHT22;26336;44.696;10.622;2022-09-09T03:47:11;20.80;99.90
40638;DHT22;26336;44.696;10.622;2022-09-09T03:50:15;20.80;99.90
40638;DHT22;26336;44.696;10.622;2022-09-09T03:53:24;20.80;99.90
40638;DHT22;26336;44.696;10.622;2022-09-09T03:56:29;20.80;99.90
40638;DHT22;26336;44.696;10.622;2022-09-09T03:59:33;20.80;99.90
40638;DHT22;26336;44.696;10.622;2022-09-09T04:02:39;20.80;99.90
40638;DHT22;26336;44.696;10.622;2022-09-09T04:05:43;20.70;99.90
40638;DHT22;26336;44.696;10.622;2022-09-09T04:08:48;20.70;99.90
40638;DHT22;26336;44.696;10.622;2022-09-09T04:11:56;20.70;99.90
40638;DHT22;26336;44.696;10.622;2022-09-09T04:15:00;20.70;99.90
40638;DHT22;26336;44.696;10.622;2022-09-09T04:18:06;20.70;99.90
40638;DHT22;26336;44.696;10.622;2022-09-09T04:21:10;20.60;99.90
40638;DHT22;26336;44.696;10.622;2022-09-09T04:24:14;20.50;99.90
40638;DHT22;26336;44.696;10.622;2022-09-09T04:27:20;20.50;99.90
40638;DHT22;26336;44.696;10.622;2022-09-09T04:30:25;20.50;99.90
40638;DHT22;26336;44.696;10.622;2022-09-09T04:33:29;20.50;99.90
40638;DHT22;26336;44.696;10.622;2022-09-09T04:36:35;20.50;99.90
40638;DHT22;26336;44.696;10.622;2022-09-09T04:39:42;20.50;99.90
40638;DHT22;26336;44.696;10.622;2022-09-09T04:42:46;20.50;99.90
40638;DHT22;26336;44.696;10.622;2022-09-09T04:45:52;20.50;99.90
40638;DHT22;26336;44.696;10.622;2022-09-09T04:49:00;20.40;99.90
40638;DHT22;26336;44.696;10.622;2022-09-09T04:52:07;20.30;99.90
40638;DHT22;26336;44.696;10.622;2022-09-09T04:55:13;20.20;99.90
40638;DHT22;26336;44.696;10.622;2022-09-09T04:58:19;20.20;99.90
40638;DHT22;26336;44.696;10.622;2022-09-09T05:01:26;20.20;99.90
40638;DHT22;26336;44.696;10.622;2022-09-09T05:04:37;20.10;99.90
40638;DHT22;26336;44.696;10.622;2022-09-09T05:07:41;20.10;99.90
40638;DHT22;26336;44.696;10.622;2022-09-09T05:10:45;20.20;99.90
40638;DHT22;26336;44.696;10.622;2022-09-09T05:13:50;20.20;99.90
40638;DHT22;26336;44.696;10.622;2022-09-09T05:16:55;20.20;99.90
40638;DHT22;26336;44.696;10.622;2022-09-09T05:20:01;20.30;99.70
40638;DHT22;26336;44.696;10.622;2022-09-09T05:23:08;20.30;99.60
40638;DHT22;26336;44.696;10.622;2022-09-09T05:26:17;20.30;99.70
40638;DHT22;26336;44.696;10.622;2022-09-09T05:29:25;20.40;99.80
40638;DHT22;26336;44.696;10.622;2022-09-09T05:32:30;20.30;99.90
40638;DHT22;26336;44.696;10.622;2022-09-09T05:35:37;20.30;99.90
40638;DHT22;26336;44.696;10.622;2022-09-09T05:38:42;20.40;99.80
40638;DHT22;26336;44.696;10.622;2022-09-09T05:41:47;20.30;99.90
40638;DHT22;26336;44.696;10.622;2022-09-09T05:44:52;20.30;99.90
40638;DHT22;26336;44.696;10.622;2022-09-09T05:47:59;20.40;99.90
40638;DHT22;26336;44.696;10.622;2022-09-09T05:51:05;20.40;99.70
40638;DHT22;26336;44.696;10.622;2022-09-09T05:54:11;20.30;99.40
40638;DHT22;26336;44.696;10.622;2022-09-09T05:57:21;20.30;99.80
40638;DHT22;26336;44.696;10.622;2022-09-09T06:00:25;20.40;99.80
40638;DHT22;26336;44.696;10.622;2022-09-09T06:03:30;20.40;99.80
40638;DHT22;26336;44.696;10.622;2022-09-09T06:06:35;20.40;99.80
40638;DHT22;26336;44.696;10.622;2022-09-09T06:09:41;20.50;99.80
40638;DHT22;26336;44.696;10.622;2022-09-09T06:12:45;20.50;99.70
40638;DHT22;26336;44.696;10.622;2022-09-09T06:15:51;20.60;99.90
40638;DHT22;26336;44.696;10.622;2022-09-09T06:18:57;20.60;99.90
40638;DHT22;26336;44.696;10.622;2022-09-09T06:22:03;20.70;99.90
40638;DHT22;26336;44.696;10.622;2022-09-09T06:25:10;20.70;99.90
40638;DHT22;26336;44.696;10.622;2022-09-09T06:28:17;20.70;99.90
40638;DHT22;26336;44.696;10.622;2022-09-09T06:31:24;20.80;99.90
40638;DHT22;26336;44.696;10.622;2022-09-09T06:34:32;20.80;99.90
40638;DHT22;26336;44.696;10.622;2022-09-09T06:37:37;20.80;99.90
40638;DHT22;26336;44.696;10.622;2022-09-09T06:40:41;20.90;99.90
40638;DHT22;26336;44.696;10.622;2022-09-09T06:43:46;20.90;99.90
40638;DHT22;26336;44.696;10.622;2022-09-09T06:46:50;21.00;99.90
40638;DHT22;26336;44.696;10.622;2022-09-09T06:49:55;21.00;99.90
40638;DHT22;26336;44.696;10.622;2022-09-09T06:53:00;20.90;99.90
40638;DHT22;26336;44.696;10.622;2022-09-09T06:59:13;20.90;99.90
40638;DHT22;26336;44.696;10.622;2022-09-09T07:02:18;21.00;99.90
40638;DHT22;26336;44.696;10.622;2022-09-09T07:05:22;20.90;99.90
40638;DHT22;26336;44.696;10.622;2022-09-09T07:08:27;21.00;99.90
40638;DHT22;26336;44.696;10.622;2022-09-09T07:11:41;21.00;99.90
40638;DHT22;26336;44.696;10.622;2022-09-09T07:14:45;21.00;99.90
40638;DHT22;26336;44.696;10.622;2022-09-09T07:17:50;21.00;99.90
40638;DHT22;26336;44.696;10.622;2022-09-09T07:20:55;21.00;99.90
40638;DHT22;26336;44.696;10.622;2022-09-09T07:24:02;20.90;99.90
40638;DHT22;26336;44.696;10.622;2022-09-09T07:27:06;20.80;99.90
40638;DHT22;26336;44.696;10.622;2022-09-09T07:30:11;20.70;99.90
40638;DHT22;26336;44.696;10.622;2022-09-09T07:33:15;20.70;99.90
40638;DHT22;26336;44.696;10.622;2022-09-09T07:36:24;20.70;99.90
40638;DHT22;26336;44.696;10.622;2022-09-09T07:39:30;20.80;99.90
40638;DHT22;26336;44.696;10.622;2022-09-09T07:42:34;20.90;99.90
40638;DHT22;26336;44.696;10.622;2022-09-09T07:45:38;20.90;99.90
40638;DHT22;26336;44.696;10.622;2022-09-09T07:48:49;20.70;99.90
40638;DHT22;26336;44.696;10.622;2022-09-09T07:51:55;20.70;99.90
40638;DHT22;26336;44.696;10.622;2022-09-09T07:55:00;20.80;99.90
40638;DHT22;26336;44.696;10.622;2022-09-09T07:58:06;20.80;99.90
40638;DHT22;26336;44.696;10.622;2022-09-09T08:01:13;20.90;99.90
40638;DHT22;26336;44.696;10.622;2022-09-09T08:04:19;20.90;99.90
40638;DHT22;26336;44.696;10.622;2022-09-09T08:07:24;20.90;99.90
40638;DHT22;26336;44.696;10.622;2022-09-09T08:10:31;21.00;99.90
40638;DHT22;26336;44.696;10.622;2022-09-09T08:13:37;21.10;99.90
40638;DHT22;26336;44.696;10.622;2022-09-09T08:16:44;21.20;99.90
40638;DHT22;26336;44.696;10.622;2022-09-09T08:19:50;21.20;99.90
40638;DHT22;26336;44.696;10.622;2022-09-09T08:22:59;21.30;99.90
40638;DHT22;26336;44.696;10.622;2022-09-09T08:26:06;21.20;99.90
40638;DHT22;26336;44.696;10.622;2022-09-09T08:29:13;21.30;99.90
40638;DHT22;26336;44.696;10.622;2022-09-09T08:32:21;21.40;99.90
40638;DHT22;26336;44.696;10.622;2022-09-09T08:35:26;21.50;99.90
40638;DHT22;26336;44.696;10.622;2022-09-09T08:38:30;21.60;99.90
40638;DHT22;26336;44.696;10.622;2022-09-09T08:45:26;21.90;99.90
40638;DHT22;26336;44.696;10.622;2022-09-09T08:51:41;22.00;99.90
40638;DHT22;26336;44.696;10.622;2022-09-09T08:54:47;22.10;99.90
40638;DHT22;26336;44.696;10.622;2022-09-09T08:57:54;22.20;99.90
40638;DHT22;26336;44.696;10.622;2022-09-09T09:04:33;22.50;99.90
40638;DHT22;26336;44.696;10.622;2022-09-09T09:08:04;22.60;99.90
40638;DHT22;26336;44.696;10.622;2022-09-09T09:11:11;22.80;99.90
40638;DHT22;26336;44.696;10.622;2022-09-09T09:17:27;23.00;99.90
40638;DHT22;26336;44.696;10.622;2022-09-09T09:20:44;23.20;99.90
40638;DHT22;26336;44.696;10.622;2022-09-09T09:23:57;23.20;99.90
40638;DHT22;26336;44.696;10.622;2022-09-09T09:27:13;23.40;99.90
40638;DHT22;26336;44.696;10.622;2022-09-09T09:30:40;23.50;99.90
40638;DHT22;26336;44.696;10.622;2022-09-09T09:33:49;23.50;99.90
40638;DHT22;26336;44.696;10.622;2022-09-09T09:36:57;23.60;99.90
40638;DHT22;26336;44.696;10.622;2022-09-09T09:43:23;23.80;99.90
40638;DHT22;26336;44.696;10.622;2022-09-09T09:46:28;23.80;99.90
40638;DHT22;26336;44.696;10.622;2022-09-09T09:49:39;23.90;99.90
40638;DHT22;26336;44.696;10.622;2022-09-09T09:52:56;24.00;99.90
40638;DHT22;26336;44.696;10.622;2022-09-09T09:56:05;24.10;99.90
40638;DHT22;26336;44.696;10.622;2022-09-09T10:02:38;24.20;99.90
40638;DHT22;26336;44.696;10.622;2022-09-09T10:05:47;24.20;99.90
40638;DHT22;26336;44.696;10.622;2022-09-09T10:08:50;24.30;99.90
40638;DHT22;26336;44.696;10.622;2022-09-09T10:15:26;24.40;99.90
40638;DHT22;26336;44.696;10.622;2022-09-09T10:18:57;24.50;99.90
40638;DHT22;26336;44.696;10.622;2022-09-09T10:22:24;24.60;99.90
40638;DHT22;26336;44.696;10.622;2022-09-09T10:32:40;24.80;99.90
40638;DHT22;26336;44.696;10.622;2022-09-09T10:39:33;24.90;99.90
40638;DHT22;26336;44.696;10.622;2022-09-09T10:42:39;25.00;99.90
40638;DHT22;26336;44.696;10.622;2022-09-09T10:55:55;25.20;98.80
40638;DHT22;26336;44.696;10.622;2022-09-09T10:59:12;25.30;98.40
40638;DHT22;26336;44.696;10.622;2022-09-09T11:02:28;25.40;98.20
40638;DHT22;26336;44.696;10.622;2022-09-09T11:05:45;25.40;98.60
40638;DHT22;26336;44.696;10.622;2022-09-09T11:08:52;25.50;98.80
40638;DHT22;26336;44.696;10.622;2022-09-09T11:11:58;25.60;98.60
40638;DHT22;26336;44.696;10.622;2022-09-09T11:15:07;25.70;98.60
40638;DHT22;26336;44.696;10.622;2022-09-09T11:18:19;25.70;98.40
40638;DHT22;26336;44.696;10.622;2022-09-09T11:21:33;25.80;99.00
40638;DHT22;26336;44.696;10.622;2022-09-09T11:24:47;25.90;99.00
40638;DHT22;26336;44.696;10.622;2022-09-09T11:41:36;26.20;99.50
40638;DHT22;26336;44.696;10.622;2022-09-09T11:44:41;26.20;99.80
40638;DHT22;26336;44.696;10.622;2022-09-09T11:47:57;26.20;99.90
40638;DHT22;26336;44.696;10.622;2022-09-09T11:51:09;26.30;99.90
40638;DHT22;26336;44.696;10.622;2022-09-09T11:54:47;26.30;99.80
40638;DHT22;26336;44.696;10.622;2022-09-09T11:58:04;26.30;99.30
40638;DHT22;26336;44.696;10.622;2022-09-09T12:01:25;26.40;99.40
40638;DHT22;26336;44.696;10.622;2022-09-09T12:04:32;26.40;98.60
40638;DHT22;26336;44.696;10.622;2022-09-09T12:07:40;26.40;98.00
40638;DHT22;26336;44.696;10.622;2022-09-09T12:10:55;26.40;97.50
40638;DHT22;26336;44.696;10.622;2022-09-09T12:14:00;26.40;97.50
40638;DHT22;26336;44.696;10.622;2022-09-09T12:17:20;26.40;97.20
40638;DHT22;26336;44.696;10.622;2022-09-09T12:23:40;26.50;96.30
40638;DHT22;26336;44.696;10.622;2022-09-09T12:27:19;26.50;97.00
40638;DHT22;26336;44.696;10.622;2022-09-09T12:30:21;26.50;96.80
40638;DHT22;26336;44.696;10.622;2022-09-09T12:33:34;26.50;97.10
40638;DHT22;26336;44.696;10.622;2022-09-09T12:36:42;26.50;97.30
40638;DHT22;26336;44.696;10.622;2022-09-09T12:39:56;26.50;96.90
40638;DHT22;26336;44.696;10.622;2022-09-09T12:43:19;26.50;97.00
40638;DHT22;26336;44.696;10.622;2022-09-09T12:46:33;26.60;96.80
40638;DHT22;26336;44.696;10.622;2022-09-09T12:49:40;26.60;96.80
40638;DHT22;26336;44.696;10.622;2022-09-09T12:52:45;26.60;96.60
40638;DHT22;26336;44.696;10.622;2022-09-09T12:55:54;26.60;96.20
40638;DHT22;26336;44.696;10.622;2022-09-09T12:58:59;26.60;96.20
40638;DHT22;26336;44.696;10.622;2022-09-09T13:02:27;26.60;96.20
40638;DHT22;26336;44.696;10.622;2022-09-09T13:05:37;26.60;97.10
40638;DHT22;26336;44.696;10.622;2022-09-09T13:08:42;26.60;97.20
40638;DHT22;26336;44.696;10.622;2022-09-09T13:11:51;26.70;96.70
40638;DHT22;26336;44.696;10.622;2022-09-09T13:14:57;26.70;96.70
40638;DHT22;26336;44.696;10.622;2022-09-09T13:18:06;26.70;96.70
40638;DHT22;26336;44.696;10.622;2022-09-09T13:21:12;26.60;96.60
40638;DHT22;26336;44.696;10.622;2022-09-09T13:27:30;26.60;96.40
40638;DHT22;26336;44.696;10.622;2022-09-09T13:30:36;26.60;96.20
40638;DHT22;26336;44.696;10.622;2022-09-09T13:33:43;26.60;96.50
40638;DHT22;26336;44.696;10.622;2022-09-09T13:36:48;26.50;96.40
40638;DHT22;26336;44.696;10.622;2022-09-09T13:39:53;26.50;96.50
40638;DHT22;26336;44.696;10.622;2022-09-09T13:42:58;26.40;96.60
40638;DHT22;26336;44.696;10.622;2022-09-09T13:46:05;26.30;96.60
40638;DHT22;26336;44.696;10.622;2022-09-09T13:49:28;26.30;97.00
40638;DHT22;26336;44.696;10.622;2022-09-09T13:52:33;26.30;96.90
40638;DHT22;26336;44.696;10.622;2022-09-09T13:55:37;26.30;97.00
40638;DHT22;26336;44.696;10.622;2022-09-09T13:58:42;26.20;97.00
40638;DHT22;26336;44.696;10.622;2022-09-09T14:01:47;26.30;96.90
40638;DHT22;26336;44.696;10.622;2022-09-09T14:04:51;26.30;97.00
40638;DHT22;26336;44.696;10.622;2022-09-09T14:07:58;26.40;97.00
40638;DHT22;26336;44.696;10.622;2022-09-09T14:11:04;26.40;96.80
40638;DHT22;26336;44.696;10.622;2022-09-09T14:14:08;26.40;96.80
40638;DHT22;26336;44.696;10.622;2022-09-09T14:17:12;26.30;96.60
40638;DHT22;26336;44.696;10.622;2022-09-09T14:20:16;26.30;96.40
40638;DHT22;26336;44.696;10.622;2022-09-09T14:23:21;26.30;96.50
40638;DHT22;26336;44.696;10.622;2022-09-09T14:26:26;26.40;96.20
40638;DHT22;26336;44.696;10.622;2022-09-09T14:29:30;26.30;96.40
40638;DHT22;26336;44.696;10.622;2022-09-09T14:32:34;26.40;96.60
40638;DHT22;26336;44.696;10.622;2022-09-09T14:35:39;26.40;96.20
40638;DHT22;26336;44.696;10.622;2022-09-09T14:38:44;26.40;96.30
40638;DHT22;26336;44.696;10.622;2022-09-09T14:41:48;26.40;96.10
40638;DHT22;26336;44.696;10.622;2022-09-09T14:44:52;26.40;96.30
40638;DHT22;26336;44.696;10.622;2022-09-09T14:47:56;26.30;96.40
40638;DHT22;26336;44.696;10.622;2022-09-09T14:51:17;26.40;96.70
40638;DHT22;26336;44.696;10.622;2022-09-09T14:54:20;26.30;96.10
40638;DHT22;26336;44.696;10.622;2022-09-09T14:57:26;26.30;96.00
40638;DHT22;26336;44.696;10.622;2022-09-09T15:00:31;26.30;96.20
40638;DHT22;26336;44.696;10.622;2022-09-09T15:03:34;26.40;95.90
40638;DHT22;26336;44.696;10.622;2022-09-09T15:06:39;26.40;95.90
40638;DHT22;26336;44.696;10.622;2022-09-09T15:09:49;26.40;96.30
40638;DHT22;26336;44.696;10.622;2022-09-09T15:12:53;26.40;96.40
40638;DHT22;26336;44.696;10.622;2022-09-09T15:16:04;26.30;96.50
40638;DHT22;26336;44.696;10.622;2022-09-09T15:19:09;26.40;96.50
40638;DHT22;26336;44.696;10.622;2022-09-09T15:22:13;26.30;96.70
40638;DHT22;26336;44.696;10.622;2022-09-09T15:25:17;26.20;96.60
40638;DHT22;26336;44.696;10.622;2022-09-09T15:28:22;26.20;96.60
40638;DHT22;26336;44.696;10.622;2022-09-09T15:31:28;26.20;96.70
40638;DHT22;26336;44.696;10.622;2022-09-09T15:34:34;26.20;96.90
40638;DHT22;26336;44.696;10.622;2022-09-09T15:37:37;26.20;96.50
40638;DHT22;26336;44.696;10.622;2022-09-09T15:40:42;26.20;96.10
40638;DHT22;26336;44.696;10.622;2022-09-09T15:43:48;26.10;95.90
40638;DHT22;26336;44.696;10.622;2022-09-09T15:46:53;26.20;96.40
40638;DHT22;26336;44.696;10.622;2022-09-09T15:49:57;26.10;96.70
40638;DHT22;26336;44.696;10.622;2022-09-09T15:53:01;26.10;96.70
40638;DHT22;26336;44.696;10.622;2022-09-09T15:56:06;26.10;97.00
40638;DHT22;26336;44.696;10.622;2022-09-09T15:59:10;26.00;97.20
40638;DHT22;26336;44.696;10.622;2022-09-09T16:02:15;26.00;97.20
40638;DHT22;26336;44.696;10.622;2022-09-09T16:05:19;26.00;97.80
40638;DHT22;26336;44.696;10.622;2022-09-09T16:08:24;26.00;98.60
40638;DHT22;26336;44.696;10.622;2022-09-09T16:11:34;25.90;99.90
40638;DHT22;26336;44.696;10.622;2022-09-09T16:14:39;25.80;99.90
40638;DHT22;26336;44.696;10.622;2022-09-09T16:17:44;25.70;99.90
40638;DHT22;26336;44.696;10.622;2022-09-09T16:20:54;25.60;99.90
40638;DHT22;26336;44.696;10.622;2022-09-09T16:24:01;25.50;99.90
40638;DHT22;26336;44.696;10.622;2022-09-09T16:27:05;25.40;99.90
40638;DHT22;26336;44.696;10.622;2022-09-09T16:30:10;25.40;99.90
40638;DHT22;26336;44.696;10.622;2022-09-09T16:33:14;25.40;99.90
40638;DHT22;26336;44.696;10.622;2022-09-09T16:36:22;25.50;99.90
40638;DHT22;26336;44.696;10.622;2022-09-09T16:39:26;25.50;99.90
40638;DHT22;26336;44.696;10.622;2022-09-09T16:42:30;25.40;99.90
40638;DHT22;26336;44.696;10.622;2022-09-09T16:45:41;25.40;99.90
40638;DHT22;26336;44.696;10.622;2022-09-09T16:48:47;25.40;99.90
40638;DHT22;26336;44.696;10.622;2022-09-09T16:51:51;25.40;99.90
40638;DHT22;26336;44.696;10.622;2022-09-09T16:54:57;25.30;99.90
40638;DHT22;26336;44.696;10.622;2022-09-09T16:58:01;25.30;99.90
40638;DHT22;26336;44.696;10.622;2022-09-09T17:01:05;25.20;99.90
40638;DHT22;26336;44.696;10.622;2022-09-09T17:04:15;25.20;99.90
40638;DHT22;26336;44.696;10.622;2022-09-09T17:07:24;25.30;99.90
40638;DHT22;26336;44.696;10.622;2022-09-09T17:10:28;25.30;99.90
40638;DHT22;26336;44.696;10.622;2022-09-09T17:13:33;25.20;99.90
40638;DHT22;26336;44.696;10.622;2022-09-09T17:16:37;25.20;99.90
40638;DHT22;26336;44.696;10.622;2022-09-09T17:19:43;25.20;99.90
40638;DHT22;26336;44.696;10.622;2022-09-09T17:22:47;25.20;99.90
40638;DHT22;26336;44.696;10.622;2022-09-09T17:25:58;25.20;99.90
40638;DHT22;26336;44.696;10.622;2022-09-09T17:29:03;25.20;99.90
40638;DHT22;26336;44.696;10.622;2022-09-09T17:32:07;25.20;99.90
40638;DHT22;26336;44.696;10.622;2022-09-09T17:35:11;25.20;99.90
40638;DHT22;26336;44.696;10.622;2022-09-09T17:38:15;25.10;99.90
40638;DHT22;26336;44.696;10.622;2022-09-09T17:41:25;25.10;99.90
40638;DHT22;26336;44.696;10.622;2022-09-09T17:44:29;25.10;99.90
40638;DHT22;26336;44.696;10.622;2022-09-09T17:47:35;25.00;99.90
40638;DHT22;26336;44.696;10.622;2022-09-09T17:50:39;24.90;99.90
40638;DHT22;26336;44.696;10.622;2022-09-09T17:53:45;24.90;99.90
40638;DHT22;26336;44.696;10.622;2022-09-09T17:56:50;24.80;99.90
40638;DHT22;26336;44.696;10.622;2022-09-09T17:59:54;24.80;99.90
40638;DHT22;26336;44.696;10.622;2022-09-09T18:02:58;24.80;99.90
40638;DHT22;26336;44.696;10.622;2022-09-09T18:06:07;24.80;99.90
40638;DHT22;26336;44.696;10.622;2022-09-09T18:09:14;24.80;99.90
40638;DHT22;26336;44.696;10.622;2022-09-09T18:12:19;24.60;99.90
40638;DHT22;26336;44.696;10.622;2022-09-09T18:15:23;24.70;99.90
40638;DHT22;26336;44.696;10.622;2022-09-09T18:18:28;24.70;99.90
40638;DHT22;26336;44.696;10.622;2022-09-09T18:21:33;24.50;99.90
40638;DHT22;26336;44.696;10.622;2022-09-09T18:24:38;24.40;99.90
40638;DHT22;26336;44.696;10.622;2022-09-09T18:27:43;24.40;99.90
40638;DHT22;26336;44.696;10.622;2022-09-09T18:30:47;24.40;99.90
40638;DHT22;26336;44.696;10.622;2022-09-09T18:33:52;24.40;99.90
40638;DHT22;26336;44.696;10.622;2022-09-09T18:36:57;24.40;99.90
40638;DHT22;26336;44.696;10.622;2022-09-09T18:40:02;24.40;99.90
40638;DHT22;26336;44.696;10.622;2022-09-09T18:43:06;24.40;99.90
40638;DHT22;26336;44.696;10.622;2022-09-09T18:46:11;24.40;99.50
40638;DHT22;26336;44.696;10.622;2022-09-09T18:49:16;24.40;99.00
40638;DHT22;26336;44.696;10.622;2022-09-09T18:52:20;24.30;98.00
40638;DHT22;26336;44.696;10.622;2022-09-09T18:55:24;24.30;97.20
40638;DHT22;26336;44.696;10.622;2022-09-09T18:58:31;24.30;96.60
40638;DHT22;26336;44.696;10.622;2022-09-09T19:01:35;24.30;96.40
40638;DHT22;26336;44.696;10.622;2022-09-09T19:04:39;24.40;96.00
40638;DHT22;26336;44.696;10.622;2022-09-09T19:07:43;24.40;95.60
40638;DHT22;26336;44.696;10.622;2022-09-09T19:10:47;24.40;95.50
40638;DHT22;26336;44.696;10.622;2022-09-09T19:13:57;24.40;95.40
40638;DHT22;26336;44.696;10.622;2022-09-09T19:17:02;24.30;95.50
40638;DHT22;26336;44.696;10.622;2022-09-09T19:20:06;24.20;96.40
40638;DHT22;26336;44.696;10.622;2022-09-09T19:23:14;24.20;96.30
40638;DHT22;26336;44.696;10.622;2022-09-09T19:26:19;24.10;96.80
40638;DHT22;26336;44.696;10.622;2022-09-09T19:29:25;24.10;96.90
40638;DHT22;26336;44.696;10.622;2022-09-09T19:32:30;23.90;97.50
40638;DHT22;26336;44.696;10.622;2022-09-09T19:35:34;23.90;97.50
40638;DHT22;26336;44.696;10.622;2022-09-09T19:38:41;23.90;96.80
40638;DHT22;26336;44.696;10.622;2022-09-09T19:41:46;23.90;97.00
40638;DHT22;26336;44.696;10.622;2022-09-09T19:44:51;24.00;97.00
40638;DHT22;26336;44.696;10.622;2022-09-09T19:47:55;23.90;97.30
40638;DHT22;26336;44.696;10.622;2022-09-09T19:51:08;23.90;97.30
40638;DHT22;26336;44.696;10.622;2022-09-09T19:54:13;23.80;97.20
40638;DHT22;26336;44.696;10.622;2022-09-09T19:57:17;23.70;97.50
40638;DHT22;26336;44.696;10.622;2022-09-09T20:00:22;23.70;97.40
40638;DHT22;26336;44.696;10.622;2022-09-09T20:03:26;23.70;97.20
40638;DHT22;26336;44.696;10.622;2022-09-09T20:06:34;23.60;97.20
40638;DHT22;26336;44.696;10.622;2022-09-09T20:09:41;23.60;97.90
40638;DHT22;26336;44.696;10.622;2022-09-09T20:12:45;23.60;97.70
40638;DHT22;26336;44.696;10.622;2022-09-09T20:16:03;23.60;97.90
40638;DHT22;26336;44.696;10.622;2022-09-09T20:19:10;23.70;97.90
40638;DHT22;26336;44.696;10.622;2022-09-09T20:22:15;23.70;98.50
40638;DHT22;26336;44.696;10.622;2022-09-09T20:25:20;23.50;97.40
40638;DHT22;26336;44.696;10.622;2022-09-09T20:28:25;23.40;97.70
40638;DHT22;26336;44.696;10.622;2022-09-09T20:31:31;23.40;97.80
40638;DHT22;26336;44.696;10.622;2022-09-09T20:34:38;23.40;97.90
40638;DHT22;26336;44.696;10.622;2022-09-09T20:37:43;23.30;98.50
40638;DHT22;26336;44.696;10.622;2022-09-09T20:40:47;23.30;98.70
40638;DHT22;26336;44.696;10.622;2022-09-09T20:43:53;23.30;98.60
40638;DHT22;26336;44.696;10.622;2022-09-09T20:46:57;23.10;98.80
40638;DHT22;26336;44.696;10.622;2022-09-09T20:50:08;23.00;99.00
40638;DHT22;26336;44.696;10.622;2022-09-09T20:53:16;23.10;99.00
40638;DHT22;26336;44.696;10.622;2022-09-09T20:56:20;23.20;99.00
40638;DHT22;26336;44.696;10.622;2022-09-09T20:59:27;23.20;98.60
40638;DHT22;26336;44.696;10.622;2022-09-09T21:02:31;23.20;98.10
40638;DHT22;26336;44.696;10.622;2022-09-09T21:05:35;23.20;98.10
40638;DHT22;26336;44.696;10.622;2022-09-09T21:08:44;23.20;98.20
40638;DHT22;26336;44.696;10.622;2022-09-09T21:11:49;23.20;98.20
40638;DHT22;26336;44.696;10.622;2022-09-09T21:14:56;23.20;98.60
40638;DHT22;26336;44.696;10.622;2022-09-09T21:18:06;23.20;98.80
40638;DHT22;26336;44.696;10.622;2022-09-09T21:21:11;23.10;98.60